Time;durP1;ratioP1;P1;durP2;ratioP2;P2;SDS_P1;SDS_P2;PMS_P1;PMS_P2;Temp;Humidity;BMP_temperature;BMP_pressure;BME280_temperature;BME280_humidity;BME280_pressure;Samples;Min_cycle;Max_cycle;Signal;HPM_P1;HPM_P2
2022/03/22 00:00:15;;;;;;;54.53;26.00;;;9.50;62.60;;;;;;9185949;19;20400;-63
2022/03/22 00:03:24;;;;;;;48.85;25.98;;;9.50;62.70;;;;;;9185790;19;20015;-63
2022/03/22 00:06:37;;;;;;;53.85;25.58;;;9.50;62.70;;;;;;9183281;19;20633;-65
2022/03/22 00:09:42;;;;;;;50.70;25.70;;;9.40;62.70;;;;;;9181272;19;20015;-64
2022/03/22 00:12:49;;;;;;;53.33;25.08;;;9.40;62.70;;;;;;9183782;19;20018;-64
2022/03/22 00:15:55;;;;;;;47.85;25.35;;;9.40;62.80;;;;;;9184246;19;20026;-64
2022/03/22 00:19:20;;;;;;;51.53;25.83;;;9.40;62.80;;;;;;9181933;19;20007;-65
2022/03/22 00:22:28;;;;;;;57.97;26.23;;;9.30;62.80;;;;;;9184374;19;20021;-64
2022/03/22 00:25:33;;;;;;;50.30;25.92;;;9.30;62.90;;;;;;9179833;19;20014;-65
2022/03/22 00:28:38;;;;;;;50.33;25.67;;;9.30;63.00;;;;;;9181569;19;20019;-64
2022/03/22 00:31:43;;;;;;;54.72;26.77;;;9.20;62.90;;;;;;9178909;19;20017;-64
2022/03/22 00:34:49;;;;;;;53.97;26.55;;;9.20;63.00;;;;;;9182560;19;20014;-65
2022/03/22 00:37:58;;;;;;;58.17;26.35;;;9.20;63.10;;;;;;9179577;19;20011;-66
2022/03/22 00:41:03;;;;;;;48.03;25.55;;;9.10;63.10;;;;;;9179996;19;20018;-64
2022/03/22 00:44:08;;;;;;;53.05;27.58;;;9.10;63.10;;;;;;9182274;19;20015;-64
2022/03/22 00:47:13;;;;;;;50.35;25.52;;;9.10;63.20;;;;;;9180005;19;20349;-65
2022/03/22 00:50:21;;;;;;;47.67;25.95;;;9.10;63.30;;;;;;9182616;19;20041;-65
2022/03/22 00:53:29;;;;;;;60.90;26.00;;;9.10;63.40;;;;;;9182216;19;20017;-65
2022/03/22 00:56:34;;;;;;;50.30;26.58;;;9.10;63.40;;;;;;9177961;19;20014;-64
2022/03/22 01:03:00;;;;;;;48.00;25.75;;;9.00;63.50;;;;;;9181818;19;20043;-65
2022/03/22 01:06:06;;;;;;;49.13;26.27;;;9.00;63.50;;;;;;9180428;19;20018;-65
2022/03/22 01:09:14;;;;;;;52.95;26.88;;;8.90;63.50;;;;;;9180774;19;20061;-66
2022/03/22 01:12:19;;;;;;;49.50;26.20;;;8.90;63.60;;;;;;9181893;19;20018;-64
2022/03/22 01:15:32;;;;;;;53.92;26.33;;;8.90;63.60;;;;;;9180939;19;20013;-65
2022/03/22 01:18:38;;;;;;;;;;;8.90;63.70;;;;;;9182695;19;20012;-63
2022/03/22 01:21:43;;;;;;;47.15;25.33;;;8.80;63.50;;;;;;9180733;19;19922;-66
2022/03/22 01:24:52;;;;;;;57.50;28.30;;;8.80;63.40;;;;;;9180767;19;20453;-67
2022/03/22 01:27:58;;;;;;;55.63;29.42;;;8.80;63.60;;;;;;9179012;19;20022;-65
2022/03/22 01:31:03;;;;;;;63.75;27.83;;;8.70;63.60;;;;;;9181417;19;20348;-65
2022/03/22 01:34:08;;;;;;;56.20;27.60;;;8.70;63.70;;;;;;9182085;19;20110;-66
2022/03/22 01:37:13;;;;;;;56.33;27.08;;;8.70;63.80;;;;;;9179883;19;20010;-65
2022/03/22 01:40:23;;;;;;;58.30;28.10;;;8.70;63.80;;;;;;9181848;19;20022;-65
2022/03/22 01:43:28;;;;;;;57.35;27.05;;;8.70;63.90;;;;;;9182649;19;20014;-65
2022/03/22 01:46:37;;;;;;;51.05;25.35;;;8.60;63.90;;;;;;9179478;19;20014;-64
2022/03/22 01:49:42;;;;;;;56.75;25.95;;;8.60;64.00;;;;;;9177843;19;20003;-64
2022/03/22 01:52:47;;;;;;;51.00;28.05;;;8.60;64.00;;;;;;9181336;19;20014;-66
2022/03/22 01:55:55;;;;;;;50.47;28.67;;;8.60;64.10;;;;;;9176447;19;20019;-65
2022/03/22 01:59:00;;;;;;;50.15;26.48;;;8.60;64.20;;;;;;9178979;19;20038;-64
2022/03/22 02:08:42;;;;;;;57.35;27.45;;;8.50;64.20;;;;;;9179659;19;20033;-64
2022/03/22 02:11:51;;;;;;;47.78;25.35;;;8.50;64.20;;;;;;9179799;19;20018;-64
2022/03/22 02:14:56;;;;;;;54.70;28.45;;;8.50;64.30;;;;;;9181156;19;20011;-65
2022/03/22 02:18:01;;;;;;;56.80;27.67;;;8.40;64.30;;;;;;9178075;19;20345;-66
2022/03/22 02:21:09;;;;;;;53.65;27.42;;;8.50;64.40;;;;;;9178518;19;20052;-65
2022/03/22 02:24:17;;;;;;;57.25;27.85;;;8.40;64.40;;;;;;9177547;19;20019;-63
2022/03/22 02:27:25;;;;;;;54.20;26.05;;;8.40;64.50;;;;;;9177961;19;20011;-65
2022/03/22 02:30:30;;;;;;;54.83;26.30;;;8.40;64.40;;;;;;9176380;19;20023;-64
2022/03/22 02:33:35;;;;;;;51.25;26.52;;;8.40;64.40;;;;;;9180186;19;20034;-64
2022/03/22 02:36:40;;;;;;;58.65;26.45;;;8.40;65.10;;;;;;9180285;19;20417;-66
2022/03/22 02:39:48;;;;;;;52.53;27.20;;;8.30;64.50;;;;;;9176856;19;20006;-68
2022/03/22 02:42:54;;;;;;;50.85;26.35;;;8.30;64.50;;;;;;9179341;19;20021;-66
2022/03/22 02:45:59;;;;;;;52.85;26.58;;;8.30;64.60;;;;;;9178078;19;20007;-65
2022/03/22 02:49:05;;;;;;;47.08;25.33;;;8.30;64.50;;;;;;9179944;19;20014;-64
2022/03/22 02:52:10;;;;;;;51.13;25.60;;;8.20;64.60;;;;;;9188999;19;20017;-66
2022/03/22 02:55:18;;;;;;;49.15;26.48;;;8.20;64.60;;;;;;9182928;19;20380;-65
2022/03/22 02:58:23;;;;;;;51.97;26.30;;;8.20;64.70;;;;;;9185674;19;20017;-64
2022/03/22 03:01:28;;;;;;;56.92;26.58;;;8.20;64.70;;;;;;9185821;19;20044;-64
2022/03/22 03:04:33;;;;;;;52.97;27.70;;;8.20;64.70;;;;;;9188157;19;20026;-63
2022/03/22 03:07:39;;;;;;;57.33;27.48;;;8.10;64.80;;;;;;9184025;19;20022;-64
2022/03/22 03:10:47;;;;;;;56.45;27.77;;;8.10;64.70;;;;;;9186651;19;20515;-65
2022/03/22 03:17:13;;;;;;;48.75;27.15;;;8.10;64.80;;;;;;9188001;19;20022;-65
2022/03/22 03:20:18;;;;;;;54.42;28.15;;;8.00;64.80;;;;;;9187448;19;20018;-63
2022/03/22 03:23:23;;;;;;;56.42;25.65;;;8.00;64.80;;;;;;9181738;19;20043;-66
2022/03/22 03:26:31;;;;;;;49.83;24.83;;;8.00;64.90;;;;;;9185625;19;20019;-63
2022/03/22 03:29:36;;;;;;;51.15;25.13;;;8.00;65.00;;;;;;9186815;19;20011;-65
2022/03/22 03:32:41;;;;;;;58.33;27.70;;;8.00;65.10;;;;;;9185431;19;20035;-64
2022/03/22 03:35:46;;;;;;;46.85;26.30;;;8.00;65.00;;;;;;9187571;19;20077;-64
2022/03/22 03:38:51;;;;;;;52.17;26.40;;;8.00;65.10;;;;;;9184528;19;20010;-66
2022/03/22 03:42:00;;;;;;;53.78;26.52;;;7.90;65.00;;;;;;9185362;19;20015;-66
2022/03/22 03:48:23;;;;;;;49.28;25.80;;;7.90;65.10;;;;;;9183513;19;20479;-65
2022/03/22 03:51:28;;;;;;;51.30;24.23;;;7.90;65.10;;;;;;9184470;19;20015;-65
2022/03/22 03:54:33;;;;;;;50.08;25.45;;;7.80;65.10;;;;;;9180778;19;20021;-63
2022/03/22 03:57:40;;;;;;;55.28;26.88;;;7.80;65.10;;;;;;9184829;19;20023;-64
2022/03/22 04:00:45;;;;;;;51.20;26.77;;;7.80;65.20;;;;;;9183581;19;20022;-63
2022/03/22 04:03:50;;;;;;;57.10;27.90;;;7.80;65.20;;;;;;9183843;19;20025;-64
2022/03/22 04:06:56;;;;;;;55.13;26.90;;;7.80;65.20;;;;;;9183712;19;20086;-64
2022/03/22 04:10:01;;;;;;;54.13;25.08;;;7.70;65.20;;;;;;9182354;19;20025;-65
2022/03/22 04:13:09;;;;;;;58.35;26.48;;;7.70;65.30;;;;;;9186563;19;20010;-65
2022/03/22 04:16:15;;;;;;;53.80;26.77;;;7.70;65.40;;;;;;9184338;19;20028;-64
2022/03/22 04:19:20;;;;;;;54.58;27.10;;;7.70;65.30;;;;;;9179728;19;20372;-65
2022/03/22 04:22:25;;;;;;;47.88;24.70;;;7.70;65.40;;;;;;9183094;19;20018;-66
2022/03/22 04:25:30;;;;;;;47.92;25.00;;;7.70;65.40;;;;;;9183690;19;20026;-66
2022/03/22 04:35:17;;;;;;;50.10;25.08;;;7.60;65.50;;;;;;9182569;19;20098;-63
2022/03/22 04:38:22;;;;;;;46.60;24.50;;;7.60;65.50;;;;;;9182517;19;20400;-63
2022/03/22 04:41:27;;;;;;;48.78;24.13;;;7.50;65.50;;;;;;9184072;19;20020;-64
2022/03/22 04:44:35;;;;;;;56.28;26.20;;;7.50;65.50;;;;;;9183645;19;20021;-65
2022/03/22 04:47:40;;;;;;;51.38;25.70;;;7.50;65.60;;;;;;9179457;19;20021;-65
2022/03/22 04:50:45;;;;;;;51.97;26.20;;;7.50;65.60;;;;;;9182000;19;20633;-64
2022/03/22 04:57:08;;;;;;;49.10;25.67;;;7.40;65.70;;;;;;9180856;19;20022;-65
2022/03/22 05:00:16;;;;;;;56.65;28.05;;;7.40;65.60;;;;;;9182077;19;20021;-64
2022/03/22 05:03:21;;;;;;;51.53;27.90;;;7.40;65.80;;;;;;9181443;19;20358;-66
2022/03/22 05:06:31;;;;;;;53.97;26.75;;;7.30;66.30;;;;;;9180153;19;20110;-64
2022/03/22 05:09:36;;;;;;;49.45;26.55;;;7.30;65.70;;;;;;9181199;19;20026;-65
2022/03/22 05:12:44;;;;;;;55.70;26.25;;;7.30;65.80;;;;;;9179184;19;20011;-63
2022/03/22 05:15:51;;;;;;;53.03;26.45;;;7.30;65.90;;;;;;9179278;19;20026;-64
2022/03/22 05:18:57;;;;;;;48.60;24.95;;;7.30;65.90;;;;;;9182274;19;20015;-63
2022/03/22 05:22:02;;;;;;;57.38;26.45;;;7.30;65.90;;;;;;9181234;19;20022;-65
2022/03/22 05:25:09;;;;;;;46.42;25.08;;;7.30;65.90;;;;;;9180567;19;20022;-65
2022/03/22 05:28:15;;;;;;;50.13;26.30;;;7.20;66.10;;;;;;9180764;19;20478;-65
2022/03/22 05:31:23;;;;;;;51.92;27.35;;;7.20;65.90;;;;;;9179991;19;20014;-64
2022/03/22 05:34:29;;;;;;;59.75;26.85;;;7.20;66.00;;;;;;9182155;19;20021;-63
2022/03/22 05:37:35;;;;;;;50.55;23.83;;;7.20;66.00;;;;;;9180126;19;20018;-63
2022/03/22 05:40:40;;;;;;;52.65;25.85;;;7.20;66.10;;;;;;9179539;19;20645;-64
2022/03/22 05:43:45;;;;;;;55.90;26.25;;;7.20;66.00;;;;;;9182197;19;20352;-62
2022/03/22 05:46:58;;;;;;;54.38;26.38;;;7.20;66.10;;;;;;9180659;19;20014;-63
2022/03/22 05:50:05;;;;;;;54.25;25.52;;;7.20;66.20;;;;;;9181861;19;20011;-66
2022/03/22 05:53:10;;;;;;;51.55;25.10;;;7.20;66.20;;;;;;9180389;19;20019;-63
2022/03/22 05:56:16;;;;;;;53.58;25.25;;;7.10;66.10;;;;;;9177617;19;20029;-64
2022/03/22 05:59:20;;;;;;;52.00;25.70;;;7.10;66.20;;;;;;9178723;19;20021;-63
2022/03/22 06:02:28;;;;;;;53.92;27.15;;;7.10;66.30;;;;;;9178431;19;20033;-64
2022/03/22 06:05:34;;;;;;;54.65;26.10;;;7.10;66.40;;;;;;9178958;19;20017;-64
2022/03/22 06:08:40;;;;;;;50.28;26.13;;;7.10;66.40;;;;;;9178810;19;20825;-64
2022/03/22 06:11:45;;;;;;;49.50;25.80;;;7.10;66.40;;;;;;9178375;19;20390;-65
2022/03/22 06:15:14;;;;;;;49.95;25.98;;;7.10;66.40;;;;;;9178413;19;20011;-64
2022/03/22 06:18:18;;;;;;;58.83;26.45;;;7.10;66.50;;;;;;9178339;19;20472;-64
2022/03/22 06:21:23;;;;;;;53.72;27.35;;;7.10;66.60;;;;;;9178239;19;20018;-64
2022/03/22 06:24:28;;;;;;;63.42;28.27;;;7.10;66.50;;;;;;9185552;19;20436;-66
2022/03/22 06:27:35;;;;;;;52.67;25.95;;;7.20;66.60;;;;;;9186359;19;20014;-65
2022/03/22 06:30:40;;;;;;;60.65;27.17;;;7.20;66.70;;;;;;9187149;19;20556;-65
2022/03/22 06:33:48;;;;;;;54.97;26.83;;;7.20;66.70;;;;;;9188163;19;20011;-65
2022/03/22 06:36:53;;;;;;;51.80;25.95;;;7.20;66.90;;;;;;9189344;19;20027;-64
2022/03/22 06:39:58;;;;;;;49.85;25.50;;;7.20;66.80;;;;;;9186948;19;20022;-64
2022/03/22 06:43:04;;;;;;;54.03;26.85;;;7.30;66.90;;;;;;9187200;19;20013;-64
2022/03/22 06:46:13;;;;;;;54.15;26.63;;;7.30;67.00;;;;;;9189095;19;20014;-65
2022/03/22 06:49:22;;;;;;;58.90;27.30;;;7.30;67.10;;;;;;9186084;19;20898;-65
2022/03/22 06:52:27;;;;;;;54.00;27.75;;;7.40;67.10;;;;;;9186707;19;20019;-66
2022/03/22 06:55:32;;;;;;;53.83;27.55;;;7.50;67.20;;;;;;9183662;19;20017;-63
2022/03/22 06:58:39;;;;;;;56.33;28.17;;;7.50;67.30;;;;;;9187747;19;20043;-65
2022/03/22 07:01:44;;;;;;;57.33;28.42;;;7.50;67.30;;;;;;9186954;19;20018;-64
2022/03/22 07:04:52;;;;;;;55.63;26.60;;;7.60;67.40;;;;;;9187679;19;20017;-65
2022/03/22 07:07:57;;;;;;;51.05;26.10;;;7.70;67.40;;;;;;9182238;19;20103;-65
2022/03/22 07:14:20;;;;;;;50.55;24.88;;;7.90;67.50;;;;;;9182896;19;20608;-67
2022/03/22 07:17:25;;;;;;;50.08;25.65;;;8.00;67.50;;;;;;9178884;19;20021;-65
2022/03/22 07:20:33;;;;;;;46.75;25.38;;;8.10;67.50;;;;;;9179642;19;20022;-64
2022/03/22 07:23:39;;;;;;;53.25;25.85;;;8.20;67.60;;;;;;9182371;19;20611;-64
2022/03/22 07:26:44;;;;;;;50.15;26.20;;;8.30;67.50;;;;;;9183594;19;20018;-64
2022/03/22 07:29:50;;;;;;;59.20;26.17;;;8.40;67.60;;;;;;9182943;19;20106;-65
2022/03/22 07:32:55;;;;;;;54.10;26.45;;;8.50;67.50;;;;;;9186759;19;20843;-66
2022/03/22 07:36:03;;;;;;;57.45;25.30;;;8.60;67.50;;;;;;9184141;19;20014;-63
2022/03/22 07:39:09;;;;;;;49.25;25.75;;;8.80;67.60;;;;;;9184463;19;20021;-64
2022/03/22 07:42:14;;;;;;;47.53;25.00;;;8.90;67.60;;;;;;9185752;19;20357;-64
2022/03/22 07:45:20;;;;;;;53.58;26.13;;;9.00;67.50;;;;;;9184376;19;20011;-66
2022/03/22 07:48:25;;;;;;;49.65;25.30;;;9.20;67.60;;;;;;9185730;19;20535;-64
2022/03/22 07:54:50;;;;;;;50.08;24.45;;;9.50;67.60;;;;;;9179493;19;20030;-66
2022/03/22 07:57:57;;;;;;;50.17;23.83;;;9.70;67.60;;;;;;9185677;19;20781;-65
2022/03/22 08:01:02;;;;;;;48.13;25.08;;;9.80;67.40;;;;;;9178305;19;20017;-65
2022/03/22 08:04:07;;;;;;;65.45;24.15;;;10.00;67.50;;;;;;9180699;19;20022;-65
2022/03/22 08:07:17;;;;;;;51.97;25.40;;;10.20;67.50;;;;;;9184319;19;20029;-65
2022/03/22 08:10:22;;;;;;;48.47;25.30;;;10.30;67.40;;;;;;9180325;19;20021;-68
2022/03/22 08:13:27;;;;;;;41.97;24.08;;;10.60;67.50;;;;;;9176805;19;20368;-68
2022/03/22 08:16:32;;;;;;;41.03;22.48;;;10.70;67.50;;;;;;9178054;19;20388;-68
2022/03/22 08:19:37;;;;;;;39.05;20.95;;;11.00;67.40;;;;;;9178947;19;20055;-68
2022/03/22 08:22:54;;;;;;;43.08;22.48;;;11.20;67.30;;;;;;9182510;19;20026;-67
2022/03/22 08:26:02;;;;;;;40.97;23.63;;;11.40;67.30;;;;;;9181387;19;20018;-67
2022/03/22 08:29:07;;;;;;;39.65;22.05;;;11.60;67.10;;;;;;9181282;19;20352;-67
2022/03/22 08:32:12;;;;;;;39.85;20.83;;;11.80;66.90;;;;;;9184328;19;20020;-67
2022/03/22 08:35:17;;;;;;;41.28;21.90;;;12.00;66.80;;;;;;9183495;19;20455;-67
2022/03/22 08:38:25;;;;;;;46.33;22.17;;;12.20;66.70;;;;;;9183408;19;20021;-67
2022/03/22 08:41:30;;;;;;;43.90;21.77;;;12.50;66.60;;;;;;9182856;19;20026;-68
2022/03/22 08:44:35;;;;;;;44.15;20.45;;;12.70;66.40;;;;;;9183389;19;20010;-69
2022/03/22 08:47:41;;;;;;;34.03;19.17;;;12.90;66.30;;;;;;9182340;19;20352;-67
2022/03/22 08:50:48;;;;;;;40.67;18.85;;;13.10;66.00;;;;;;9175958;19;20018;-67
2022/03/22 08:53:56;;;;;;;33.10;17.25;;;13.30;65.70;;;;;;9175510;19;20006;-67
2022/03/22 08:57:01;;;;;;;34.75;17.92;;;13.60;65.50;;;;;;9180682;19;20082;-67
2022/03/22 09:00:09;;;;;;;38.58;18.90;;;13.80;65.30;;;;;;9177730;19;20026;-67
2022/03/22 09:03:14;;;;;;;40.75;18.98;;;14.00;65.10;;;;;;9169027;19;20586;-68
2022/03/22 09:06:20;;;;;;;41.33;19.13;;;14.20;64.90;;;;;;9180608;19;20015;-70
2022/03/22 09:09:29;;;;;;;34.67;16.73;;;14.40;64.60;;;;;;9177157;19;20480;-68
2022/03/22 09:12:36;;;;;;;33.80;17.42;;;14.60;64.40;;;;;;9171406;19;20014;-68
2022/03/22 09:15:42;;;;;;;31.92;16.20;;;14.90;64.20;;;;;;9177536;19;20491;-69
2022/03/22 09:18:49;;;;;;;26.00;14.55;;;15.10;63.90;;;;;;9179938;19;20018;-70
2022/03/22 09:21:55;;;;;;;28.60;15.48;;;15.30;63.50;;;;;;9177149;19;20003;-68
2022/03/22 09:25:03;;;;;;;29.95;14.85;;;15.50;63.00;;;;;;9178498;19;20018;-68
2022/03/22 09:28:08;;;;;;;24.67;14.27;;;15.60;62.70;;;;;;9179162;19;20025;-68
2022/03/22 09:31:13;;;;;;;29.95;14.68;;;15.80;62.40;;;;;;9176223;19;20036;-68
2022/03/22 09:34:18;;;;;;;27.40;14.90;;;16.00;62.20;;;;;;9178496;19;20011;-71
2022/03/22 09:37:23;;;;;;;30.73;16.02;;;16.10;61.90;;;;;;9176924;19;20026;-69
2022/03/22 09:40:37;;;;;;;31.95;15.00;;;16.30;61.60;;;;;;9181503;19;20014;-69
2022/03/22 09:43:49;;;;;;;27.27;15.02;;;16.40;61.20;;;;;;9180598;19;20085;-70
2022/03/22 09:46:55;;;;;;;30.13;14.38;;;16.60;60.90;;;;;;9179118;19;20022;-69
2022/03/22 09:50:00;;;;;;;27.35;15.50;;;16.70;60.80;;;;;;9170224;19;20014;-69
2022/03/22 09:53:05;;;;;;;29.55;15.27;;;16.90;60.60;;;;;;9179469;19;20078;-68
2022/03/22 09:56:14;;;;;;;36.72;15.55;;;17.00;60.30;;;;;;9174682;19;20021;-69
2022/03/22 09:59:20;;;;;;;28.40;14.45;;;17.20;59.90;;;;;;9176501;19;20337;-69
2022/03/22 10:02:30;;;;;;;27.25;14.57;;;17.40;59.80;;;;;;9177526;19;20025;-69
2022/03/22 10:05:36;;;;;;;29.73;15.27;;;17.50;59.40;;;;;;9179380;19;20021;-69
2022/03/22 10:08:51;;;;;;;29.35;15.25;;;17.70;59.90;;;;;;9178078;19;20014;-69
2022/03/22 10:12:00;;;;;;;25.98;15.27;;;17.80;58.80;;;;;;9179032;19;20018;-69
2022/03/22 10:15:12;;;;;;;28.95;15.00;;;18.00;59.00;;;;;;9178055;19;20021;-69
2022/03/22 10:18:25;;;;;;;30.17;15.65;;;18.10;58.60;;;;;;9180118;19;20015;-69
2022/03/22 10:21:32;;;;;;;29.25;15.23;;;18.30;58.30;;;;;;9178932;19;20349;-69
2022/03/22 10:24:47;;;;;;;28.50;15.95;;;18.40;58.50;;;;;;9178494;19;20015;-69
2022/03/22 10:27:56;;;;;;;34.15;14.93;;;18.60;58.00;;;;;;9178558;19;20022;-69
2022/03/22 10:31:03;;;;;;;29.98;15.27;;;18.70;58.00;;;;;;9175380;19;20018;-69
2022/03/22 10:34:09;;;;;;;37.55;16.45;;;18.90;58.00;;;;;;9178083;19;20029;-69
2022/03/22 10:37:15;;;;;;;30.40;16.00;;;19.00;57.70;;;;;;9178056;19;20014;-69
2022/03/22 10:40:27;;;;;;;30.55;15.23;;;19.20;57.60;;;;;;9177128;19;20428;-69
2022/03/22 10:43:37;;;;;;;29.02;16.80;;;19.40;57.10;;;;;;9178165;19;20014;-69
2022/03/22 10:46:45;;;;;;;32.33;16.92;;;19.50;56.90;;;;;;9179497;19;20526;-69
2022/03/22 10:49:50;;;;;;;26.52;16.83;;;19.60;57.00;;;;;;9174576;19;20015;-69
2022/03/22 10:52:59;;;;;;;30.38;15.43;;;19.80;56.80;;;;;;9173102;19;20028;-69
2022/03/22 10:56:05;;;;;;;31.63;17.20;;;19.90;56.60;;;;;;9172851;19;20041;-69
2022/03/22 10:59:14;;;;;;;34.08;16.05;;;20.10;56.30;;;;;;9176050;19;20022;-69
2022/03/22 11:02:21;;;;;;;35.85;17.63;;;20.20;56.00;;;;;;9178607;19;20007;-68
2022/03/22 11:05:28;;;;;;;29.77;16.88;;;20.30;55.80;;;;;;9178797;19;20355;-70
2022/03/22 11:08:33;;;;;;;29.83;16.25;;;20.40;55.60;;;;;;9176214;19;20094;-70
2022/03/22 11:11:38;;;;;;;27.55;16.52;;;20.60;55.60;;;;;;9182614;19;20021;-68
2022/03/22 11:14:53;;;;;;;34.60;16.23;;;20.70;55.40;;;;;;9187056;19;20025;-66
2022/03/22 11:17:59;;;;;;;33.47;17.10;;;20.80;54.90;;;;;;9186035;19;20376;-66
2022/03/22 11:21:06;;;;;;;29.98;16.38;;;20.90;55.00;;;;;;9185105;19;20003;-69
2022/03/22 11:24:25;;;;;;;28.02;17.02;;;21.00;54.80;;;;;;9185447;19;20022;-69
2022/03/22 11:27:31;;;;;;;34.70;17.73;;;21.10;54.40;;;;;;9185920;19;20014;-71
2022/03/22 11:30:42;;;;;;;32.40;18.55;;;21.20;54.30;;;;;;9185057;19;20029;-70
2022/03/22 11:37:06;;;;;;;29.25;17.85;;;21.30;53.90;;;;;;9183512;19;20721;-68
2022/03/22 11:43:45;;;;;;;31.80;17.98;;;21.50;53.60;;;;;;9172286;19;20438;-71
2022/03/22 11:47:07;;;;;;;29.50;16.00;;;21.60;53.30;;;;;;9177645;19;20029;-69
2022/03/22 11:50:17;;;;;;;35.13;16.88;;;21.60;52.80;;;;;;9173402;19;20023;-68
2022/03/22 11:53:23;;;;;;;32.47;17.17;;;21.70;53.20;;;;;;9178128;19;20014;-69
2022/03/22 11:56:29;;;;;;;31.83;17.83;;;21.70;53.10;;;;;;9178843;19;20014;-69
2022/03/22 11:59:46;;;;;;;28.92;15.98;;;21.80;52.90;;;;;;9182391;19;20019;-69
2022/03/22 12:02:57;;;;;;;29.88;17.50;;;21.90;52.40;;;;;;9176877;19;20018;-68
2022/03/22 12:06:16;;;;;;;30.00;16.90;;;21.90;52.40;;;;;;9168151;19;20015;-70
2022/03/22 12:09:28;;;;;;;32.20;17.90;;;22.00;52.00;;;;;;9178125;19;20015;-68
2022/03/22 12:12:35;;;;;;;30.20;17.20;;;22.10;52.10;;;;;;9170602;19;20034;-66
2022/03/22 12:15:40;;;;;;;33.55;16.85;;;22.10;52.20;;;;;;9180550;19;20015;-66
2022/03/22 12:18:47;;;;;;;32.33;16.92;;;22.20;52.10;;;;;;9179972;19;20006;-66
2022/03/22 12:21:54;;;;;;;31.27;17.33;;;22.20;51.70;;;;;;9181369;19;20479;-65
2022/03/22 12:25:01;;;;;;;28.13;15.85;;;22.30;51.70;;;;;;9183640;19;20069;-65
2022/03/22 12:28:09;;;;;;;31.45;16.40;;;22.30;51.70;;;;;;9181929;19;20010;-65
2022/03/22 12:31:14;;;;;;;30.23;17.42;;;22.40;51.50;;;;;;9180017;19;20480;-67
2022/03/22 12:34:29;;;;;;;30.13;16.30;;;22.50;51.30;;;;;;9181881;19;20468;-67
2022/03/22 12:37:34;;;;;;;32.40;17.27;;;22.50;50.90;;;;;;9184061;19;20026;-66
2022/03/22 12:40:40;;;;;;;30.90;16.45;;;22.50;50.80;;;;;;9183593;19;20018;-67
2022/03/22 12:43:45;;;;;;;28.52;15.63;;;22.60;50.70;;;;;;9181000;19;20014;-66
2022/03/22 12:46:50;;;;;;;30.13;16.50;;;22.60;50.40;;;;;;9182281;19;20463;-67
2022/03/22 12:49:58;;;;;;;31.65;15.57;;;22.60;50.40;;;;;;9182481;19;20025;-65
2022/03/22 12:53:03;;;;;;;32.88;17.27;;;22.70;50.20;;;;;;9182171;19;20015;-66
2022/03/22 12:56:16;;;;;;;31.30;15.18;;;22.70;50.30;;;;;;9179449;19;20014;-66
2022/03/22 12:59:22;;;;;;;28.33;14.80;;;22.80;49.70;;;;;;9182915;19;20502;-66
2022/03/22 13:02:28;;;;;;;29.80;15.23;;;22.80;49.90;;;;;;9179894;19;20035;-66
2022/03/22 13:05:41;;;;;;;31.95;15.90;;;22.80;49.80;;;;;;9179542;19;20015;-66
2022/03/22 13:12:12;;;;;;;33.88;15.57;;;22.90;49.50;;;;;;9178501;19;20025;-64
2022/03/22 13:15:19;;;;;;;34.47;14.07;;;22.80;49.20;;;;;;9183128;19;20014;-68
2022/03/22 13:18:31;;;;;;;29.60;14.48;;;22.80;49.60;;;;;;9178001;19;20010;-65
2022/03/22 13:21:40;;;;;;;34.40;14.48;;;22.80;48.80;;;;;;9179246;19;20022;-65
2022/03/22 13:24:45;;;;;;;25.33;14.80;;;22.70;48.90;;;;;;9178183;19;20019;-66
2022/03/22 13:27:57;;;;;;;27.08;14.10;;;22.80;49.00;;;;;;9182859;19;20018;-66
2022/03/22 13:31:02;;;;;;;28.52;14.13;;;22.70;48.50;;;;;;9177437;19;20019;-66
2022/03/22 13:34:07;;;;;;;30.90;14.55;;;22.70;48.80;;;;;;9178353;19;20018;-66
2022/03/22 13:37:17;;;;;;;25.27;13.25;;;22.70;48.70;;;;;;9180565;19;20011;-65
2022/03/22 13:40:23;;;;;;;30.13;14.18;;;22.60;48.40;;;;;;9179489;19;20021;-66
2022/03/22 13:43:28;;;;;;;28.30;13.13;;;22.60;48.50;;;;;;9178712;19;20019;-65
2022/03/22 13:46:33;;;;;;;23.08;12.50;;;22.60;48.50;;;;;;9181227;19;20010;-66
2022/03/22 13:49:39;;;;;;;27.55;13.80;;;22.50;48.70;;;;;;9179047;19;20015;-65
2022/03/22 13:53:05;;;;;;;26.08;13.20;;;22.50;48.40;;;;;;9174833;19;20102;-66
2022/03/22 13:56:10;;;;;;;31.63;13.38;;;22.50;47.80;;;;;;9173161;19;20010;-65
2022/03/22 13:59:15;;;;;;;28.75;14.52;;;22.50;48.20;;;;;;9176923;19;20352;-66
2022/03/22 14:02:22;;;;;;;31.73;14.27;;;22.50;48.10;;;;;;9179734;19;20018;-66
2022/03/22 14:05:27;;;;;;;27.20;14.38;;;22.40;48.00;;;;;;9178119;19;20011;-65
2022/03/22 14:08:36;;;;;;;24.80;13.20;;;22.40;47.90;;;;;;9178239;19;20010;-67
2022/03/22 14:11:43;;;;;;;24.25;11.98;;;22.30;47.70;;;;;;9178977;19;20011;-65
2022/03/22 14:14:48;;;;;;;24.73;12.98;;;22.30;47.70;;;;;;9178764;19;20022;-65
2022/03/22 14:17:53;;;;;;;22.10;11.70;;;22.30;47.70;;;;;;9179542;19;20018;-66
2022/03/22 14:20:58;;;;;;;25.08;11.55;;;22.20;47.60;;;;;;9180444;19;20025;-65
2022/03/22 14:24:07;;;;;;;26.02;11.32;;;22.20;47.50;;;;;;9180329;19;20077;-65
2022/03/22 14:27:12;;;;;;;26.13;12.60;;;22.10;47.30;;;;;;9179590;19;20345;-66
2022/03/22 14:30:20;;;;;;;23.48;12.20;;;22.10;47.40;;;;;;9180416;19;20049;-66
2022/03/22 14:33:26;;;;;;;22.40;11.60;;;22.00;47.20;;;;;;9175239;19;20499;-65
2022/03/22 14:36:32;;;;;;;31.30;11.55;;;22.00;47.30;;;;;;9177787;19;20018;-66
2022/03/22 14:39:40;;;;;;;23.85;11.93;;;22.00;47.40;;;;;;9176730;19;20403;-67
2022/03/22 14:42:45;;;;;;;25.02;12.75;;;22.00;47.20;;;;;;9176357;19;20433;-65
2022/03/22 14:45:50;;;;;;;27.05;12.68;;;22.00;47.30;;;;;;9186135;19;20356;-65
2022/03/22 14:48:55;;;;;;;27.17;11.63;;;22.00;47.80;;;;;;9184955;19;20042;-65
2022/03/22 14:55:21;;;;;;;29.10;12.02;;;21.90;47.00;;;;;;9180212;19;20101;-66
2022/03/22 15:01:44;;;;;;;24.83;13.20;;;21.80;46.90;;;;;;9187433;19;20011;-66
2022/03/22 15:04:50;;;;;;;27.73;12.02;;;21.80;46.90;;;;;;9187726;19;20528;-67
2022/03/22 15:07:56;;;;;;;18.90;12.40;;;21.70;46.90;;;;;;9184055;19;20053;-66
2022/03/22 15:11:04;;;;;;;23.05;11.82;;;21.70;46.90;;;;;;9183278;19;20021;-66
2022/03/22 15:14:15;;;;;;;22.00;12.05;;;21.70;46.80;;;;;;9186432;19;20019;-64
2022/03/22 15:17:20;;;;;;;28.52;13.48;;;21.60;46.80;;;;;;9186913;19;20019;-65
2022/03/22 15:20:26;;;;;;;29.80;13.07;;;21.60;46.80;;;;;;9188096;19;20025;-65
2022/03/22 15:23:31;;;;;;;23.40;13.18;;;21.50;46.70;;;;;;9187412;19;20490;-66
2022/03/22 15:26:39;;;;;;;25.60;13.13;;;21.50;46.70;;;;;;9187086;19;20091;-66
2022/03/22 15:29:44;;;;;;;27.60;13.70;;;21.50;46.60;;;;;;9185575;19;20470;-66
2022/03/22 15:33:11;;;;;;;27.45;13.38;;;21.40;46.60;;;;;;9182674;19;20018;-65
2022/03/22 15:36:16;;;;;;;30.17;13.55;;;21.40;46.60;;;;;;9186785;19;20015;-65
2022/03/22 15:39:21;;;;;;;26.65;13.07;;;21.30;46.60;;;;;;9186422;19;20063;-67
2022/03/22 15:42:31;;;;;;;24.00;11.63;;;21.30;46.60;;;;;;9186069;19;20074;-67
2022/03/22 15:45:36;;;;;;;26.52;12.75;;;21.20;46.50;;;;;;9184932;19;20044;-67
2022/03/22 15:48:42;;;;;;;27.38;12.07;;;21.20;46.50;;;;;;9183860;19;20025;-65
2022/03/22 15:51:49;;;;;;;36.90;12.20;;;21.10;46.50;;;;;;9185987;19;20006;-65
2022/03/22 15:54:55;;;;;;;21.33;11.88;;;21.10;46.50;;;;;;9181648;19;20380;-64
2022/03/22 15:58:07;;;;;;;31.02;12.93;;;21.10;46.50;;;;;;9183254;19;20025;-65
2022/03/22 16:01:12;;;;;;;26.83;12.40;;;21.00;46.40;;;;;;9184640;19;20484;-65
2022/03/22 16:04:18;;;;;;;22.85;12.23;;;21.00;46.40;;;;;;9186013;19;20047;-66
2022/03/22 16:07:23;;;;;;;38.83;13.20;;;20.90;46.40;;;;;;9183506;19;20018;-68
2022/03/22 16:10:28;;;;;;;30.95;12.25;;;20.90;46.50;;;;;;9184986;19;20007;-67
2022/03/22 16:13:35;;;;;;;24.60;11.15;;;20.80;46.40;;;;;;9183146;19;20582;-67
2022/03/22 16:16:41;;;;;;;32.10;12.85;;;20.80;46.30;;;;;;9182966;19;20018;-64
2022/03/22 16:19:46;;;;;;;33.72;13.13;;;20.70;46.50;;;;;;9183593;19;20056;-67
2022/03/22 16:22:51;;;;;;;34.95;13.00;;;20.70;46.40;;;;;;9182393;19;20026;-67
2022/03/22 16:26:03;;;;;;;29.40;12.98;;;20.60;46.40;;;;;;9183508;19;20018;-65
2022/03/22 16:29:11;;;;;;;33.92;14.07;;;20.50;46.40;;;;;;9181120;19;20498;-65
2022/03/22 16:32:16;;;;;;;34.45;13.85;;;20.50;46.90;;;;;;9183925;19;20336;-67
2022/03/22 16:42:00;;;;;;;36.22;14.02;;;20.30;46.40;;;;;;9176696;19;20083;-66
2022/03/22 16:45:09;;;;;;;27.60;12.48;;;20.20;46.50;;;;;;9176052;19;20371;-64
2022/03/22 16:48:15;;;;;;;28.73;13.02;;;20.20;46.50;;;;;;9177586;19;20107;-65